sensor_id;sensor_type;location;lat;lon;timestamp;P1;durP1;ratioP1;P2;durP2;ratioP2
35243;SDS011;37916;52.160;21.066;2022-09-09T00:09:50;15.63;;;8.05;;
35243;SDS011;37916;52.160;21.066;2022-09-09T00:21:14;19.88;;;9.18;;
35243;SDS011;37916;52.160;21.066;2022-09-09T00:31:20;16.95;;;9.43;;
35243;SDS011;37916;52.160;21.066;2022-09-09T01:02:28;16.85;;;11.02;;
35243;SDS011;37916;52.160;21.066;2022-09-09T01:12:45;32.80;;;13.70;;
35243;SDS011;37916;52.160;21.066;2022-09-09T01:32:59;21.08;;;12.30;;
35243;SDS011;37916;52.160;21.066;2022-09-09T01:43:03;23.02;;;14.25;;
35243;SDS011;37916;52.160;21.066;2022-09-09T01:53:05;22.75;;;13.93;;
35243;SDS011;37916;52.160;21.066;2022-09-09T02:13:13;25.73;;;15.35;;
35243;SDS011;37916;52.160;21.066;2022-09-09T02:23:15;26.67;;;15.60;;
35243;SDS011;37916;52.160;21.066;2022-09-09T02:33:17;26.75;;;15.77;;
35243;SDS011;37916;52.160;21.066;2022-09-09T02:43:19;28.02;;;15.80;;
35243;SDS011;37916;52.160;21.066;2022-09-09T02:53:21;27.17;;;16.25;;
35243;SDS011;37916;52.160;21.066;2022-09-09T03:03:37;28.35;;;15.45;;
35243;SDS011;37916;52.160;21.066;2022-09-09T03:13:38;27.55;;;17.10;;
35243;SDS011;37916;52.160;21.066;2022-09-09T03:23:38;27.03;;;16.83;;
35243;SDS011;37916;52.160;21.066;2022-09-09T03:33:39;28.02;;;16.50;;
35243;SDS011;37916;52.160;21.066;2022-09-09T03:43:41;30.38;;;17.63;;
35243;SDS011;37916;52.160;21.066;2022-09-09T03:53:42;35.47;;;17.85;;
35243;SDS011;37916;52.160;21.066;2022-09-09T04:03:43;24.60;;;14.95;;
35243;SDS011;37916;52.160;21.066;2022-09-09T04:13:47;24.73;;;13.90;;
35243;SDS011;37916;52.160;21.066;2022-09-09T04:23:49;26.05;;;14.10;;
35243;SDS011;37916;52.160;21.066;2022-09-09T04:33:50;22.97;;;14.37;;
35243;SDS011;37916;52.160;21.066;2022-09-09T04:43:50;21.50;;;13.65;;
35243;SDS011;37916;52.160;21.066;2022-09-09T04:53:52;27.92;;;14.88;;
35243;SDS011;37916;52.160;21.066;2022-09-09T05:03:56;24.52;;;14.68;;
35243;SDS011;37916;52.160;21.066;2022-09-09T05:13:57;22.10;;;12.82;;
35243;SDS011;37916;52.160;21.066;2022-09-09T05:23:58;23.77;;;15.07;;
35243;SDS011;37916;52.160;21.066;2022-09-09T05:34:00;21.33;;;13.13;;
35243;SDS011;37916;52.160;21.066;2022-09-09T05:44:01;33.63;;;16.42;;
35243;SDS011;37916;52.160;21.066;2022-09-09T05:54:05;23.75;;;13.30;;
35243;SDS011;37916;52.160;21.066;2022-09-09T06:04:06;25.52;;;14.70;;
35243;SDS011;37916;52.160;21.066;2022-09-09T06:14:07;24.98;;;14.82;;
35243;SDS011;37916;52.160;21.066;2022-09-09T06:24:09;25.67;;;15.07;;
35243;SDS011;37916;52.160;21.066;2022-09-09T06:34:10;26.10;;;17.58;;
35243;SDS011;37916;52.160;21.066;2022-09-09T06:44:10;24.52;;;14.98;;
35243;SDS011;37916;52.160;21.066;2022-09-09T06:54:12;31.58;;;18.50;;
35243;SDS011;37916;52.160;21.066;2022-09-09T07:04:16;31.83;;;18.73;;
35243;SDS011;37916;52.160;21.066;2022-09-09T07:24:17;32.20;;;19.33;;
35243;SDS011;37916;52.160;21.066;2022-09-09T07:34:18;37.25;;;21.30;;
35243;SDS011;37916;52.160;21.066;2022-09-09T07:44:20;30.63;;;19.08;;
35243;SDS011;37916;52.160;21.066;2022-09-09T07:54:22;36.80;;;21.67;;
35243;SDS011;37916;52.160;21.066;2022-09-09T08:04:23;35.70;;;22.40;;
35243;SDS011;37916;52.160;21.066;2022-09-09T08:14:26;27.88;;;17.98;;
35243;SDS011;37916;52.160;21.066;2022-09-09T08:24:27;25.83;;;18.58;;
35243;SDS011;37916;52.160;21.066;2022-09-09T08:34:27;27.00;;;17.30;;
35243;SDS011;37916;52.160;21.066;2022-09-09T08:55:25;27.42;;;18.70;;
35243;SDS011;37916;52.160;21.066;2022-09-09T09:05:30;28.23;;;18.10;;
35243;SDS011;37916;52.160;21.066;2022-09-09T09:15:37;27.98;;;17.33;;
35243;SDS011;37916;52.160;21.066;2022-09-09T09:25:47;29.05;;;19.13;;
35243;SDS011;37916;52.160;21.066;2022-09-09T09:35:51;33.90;;;18.95;;
35243;SDS011;37916;52.160;21.066;2022-09-09T09:45:53;34.80;;;19.92;;
35243;SDS011;37916;52.160;21.066;2022-09-09T09:55:59;31.10;;;19.40;;
35243;SDS011;37916;52.160;21.066;2022-09-09T10:06:08;30.83;;;21.03;;
35243;SDS011;37916;52.160;21.066;2022-09-09T10:37:13;38.33;;;26.25;;
35243;SDS011;37916;52.160;21.066;2022-09-09T10:58:12;35.55;;;23.35;;
35243;SDS011;37916;52.160;21.066;2022-09-09T11:08:21;38.97;;;24.30;;
35243;SDS011;37916;52.160;21.066;2022-09-09T11:18:25;39.05;;;24.38;;
35243;SDS011;37916;52.160;21.066;2022-09-09T11:39:06;42.67;;;27.17;;
35243;SDS011;37916;52.160;21.066;2022-09-09T11:49:40;40.13;;;26.20;;
35243;SDS011;37916;52.160;21.066;2022-09-09T11:59:49;46.58;;;28.33;;
35243;SDS011;37916;52.160;21.066;2022-09-09T12:09:52;42.28;;;27.63;;
35243;SDS011;37916;52.160;21.066;2022-09-09T12:30:27;46.50;;;28.80;;
35243;SDS011;37916;52.160;21.066;2022-09-09T12:40:33;43.45;;;27.08;;
35243;SDS011;37916;52.160;21.066;2022-09-09T13:00:54;52.05;;;29.10;;
35243;SDS011;37916;52.160;21.066;2022-09-09T13:11:00;50.30;;;28.52;;
35243;SDS011;37916;52.160;21.066;2022-09-09T13:31:05;53.38;;;27.52;;
35243;SDS011;37916;52.160;21.066;2022-09-09T13:41:22;49.42;;;26.38;;
35243;SDS011;37916;52.160;21.066;2022-09-09T14:01:50;49.30;;;25.33;;
35243;SDS011;37916;52.160;21.066;2022-09-09T14:11:52;49.33;;;26.10;;
35243;SDS011;37916;52.160;21.066;2022-09-09T14:21:55;45.40;;;25.53;;
35243;SDS011;37916;52.160;21.066;2022-09-09T14:31:56;47.92;;;25.83;;
35243;SDS011;37916;52.160;21.066;2022-09-09T14:52:11;46.78;;;26.92;;
35243;SDS011;37916;52.160;21.066;2022-09-09T15:02:16;44.03;;;25.42;;
35243;SDS011;37916;52.160;21.066;2022-09-09T15:22:50;43.45;;;25.10;;
35243;SDS011;37916;52.160;21.066;2022-09-09T15:32:52;41.47;;;24.38;;
35243;SDS011;37916;52.160;21.066;2022-09-09T15:42:53;43.13;;;25.30;;
35243;SDS011;37916;52.160;21.066;2022-09-09T15:52:54;42.05;;;24.15;;
35243;SDS011;37916;52.160;21.066;2022-09-09T16:02:54;37.72;;;22.67;;
35243;SDS011;37916;52.160;21.066;2022-09-09T16:12:55;39.13;;;24.17;;
35243;SDS011;37916;52.160;21.066;2022-09-09T16:22:56;40.10;;;24.73;;
35243;SDS011;37916;52.160;21.066;2022-09-09T16:32:57;34.13;;;22.85;;
35243;SDS011;37916;52.160;21.066;2022-09-09T16:42:57;31.42;;;21.30;;
35243;SDS011;37916;52.160;21.066;2022-09-09T16:52:58;37.25;;;23.77;;
35243;SDS011;37916;52.160;21.066;2022-09-09T17:03:04;34.05;;;21.88;;
35243;SDS011;37916;52.160;21.066;2022-09-09T17:13:39;35.67;;;22.08;;
35243;SDS011;37916;52.160;21.066;2022-09-09T17:45:54;37.65;;;22.98;;
35243;SDS011;37916;52.160;21.066;2022-09-09T17:55:56;42.30;;;21.52;;
35243;SDS011;37916;52.160;21.066;2022-09-09T18:06:03;34.88;;;22.20;;
35243;SDS011;37916;52.160;21.066;2022-09-09T18:16:08;32.78;;;21.05;;
35243;SDS011;37916;52.160;21.066;2022-09-09T18:26:11;33.45;;;19.98;;
35243;SDS011;37916;52.160;21.066;2022-09-09T18:36:21;29.77;;;18.58;;
35243;SDS011;37916;52.160;21.066;2022-09-09T18:46:24;31.00;;;18.57;;
35243;SDS011;37916;52.160;21.066;2022-09-09T19:06:59;24.33;;;17.30;;
35243;SDS011;37916;52.160;21.066;2022-09-09T19:17:06;24.95;;;16.73;;
35243;SDS011;37916;52.160;21.066;2022-09-09T19:27:06;24.73;;;16.45;;
35243;SDS011;37916;52.160;21.066;2022-09-09T19:37:21;23.70;;;15.85;;
35243;SDS011;37916;52.160;21.066;2022-09-09T19:47:24;29.75;;;17.83;;
35243;SDS011;37916;52.160;21.066;2022-09-09T19:57:28;25.65;;;16.60;;
35243;SDS011;37916;52.160;21.066;2022-09-09T20:07:29;24.02;;;16.50;;
35243;SDS011;37916;52.160;21.066;2022-09-09T20:17:30;27.88;;;17.15;;
35243;SDS011;37916;52.160;21.066;2022-09-09T20:27:30;24.95;;;16.20;;
35243;SDS011;37916;52.160;21.066;2022-09-09T20:48:32;21.55;;;14.55;;
35243;SDS011;37916;52.160;21.066;2022-09-09T20:58:33;19.02;;;12.45;;
35243;SDS011;37916;52.160;21.066;2022-09-09T21:08:34;20.73;;;12.90;;
35243;SDS011;37916;52.160;21.066;2022-09-09T21:18:35;18.88;;;12.23;;
35243;SDS011;37916;52.160;21.066;2022-09-09T21:28:36;19.75;;;12.63;;
35243;SDS011;37916;52.160;21.066;2022-09-09T21:38:37;17.85;;;13.07;;
35243;SDS011;37916;52.160;21.066;2022-09-09T21:48:44;18.75;;;11.60;;
35243;SDS011;37916;52.160;21.066;2022-09-09T21:58:52;17.33;;;12.23;;
35243;SDS011;37916;52.160;21.066;2022-09-09T22:08:54;20.92;;;13.23;;
35243;SDS011;37916;52.160;21.066;2022-09-09T22:18:58;18.27;;;11.73;;
35243;SDS011;37916;52.160;21.066;2022-09-09T22:29:00;19.40;;;13.38;;
35243;SDS011;37916;52.160;21.066;2022-09-09T22:39:04;19.43;;;13.17;;
35243;SDS011;37916;52.160;21.066;2022-09-09T22:49:05;14.43;;;11.07;;
35243;SDS011;37916;52.160;21.066;2022-09-09T22:59:06;17.38;;;13.50;;
35243;SDS011;37916;52.160;21.066;2022-09-09T23:09:08;16.33;;;12.90;;
35243;SDS011;37916;52.160;21.066;2022-09-09T23:19:11;16.58;;;10.32;;
35243;SDS011;37916;52.160;21.066;2022-09-09T23:29:15;14.02;;;9.40;;
35243;SDS011;37916;52.160;21.066;2022-09-09T23:39:15;12.88;;;8.75;;
35243;SDS011;37916;52.160;21.066;2022-09-09T23:49:16;13.15;;;8.80;;
35243;SDS011;37916;52.160;21.066;2022-09-09T23:59:17;12.60;;;9.32;;
